岡山グライダークラブ活動状況掲示板

岡山グライダークラブ
岡山市浦安南町639-1 岡南飛行場
 使用機:シャイベ式 SF25C型 ファルケ   JA2330
      ヴァレンティン式17E型 タイフーン  JA2342
 練習日:毎日曜日  クラブルーム:電話 086-265-1810
この掲示板は岡山グライダークラブの活動状況をお知らせする掲示板です。
!!!この掲示板は投稿規制をしています。!!!
クラブ関連各種情報は 岡山グライダークラブクラブルーム      を       .
  ブリーフイング情報は  岡山グライダークラブブリーフィングルーム  をご覧下さい。 .
※写真はクリックすると拡大して見ることが出来ます。
岡南飛行場へのアクセス等は 岡南飛行場管理事務所 をご覧ください。
クラブの ホームページ ができました。

!!!お待たせしました。新型コロナ感染症の感染が下火になったことから見学者等の受入を再開します。!!!
  注)なお、見学等の際には一般的な感染対策(マスク、ソーシャルディスタンス、黙食等)を順守してください。

 
11月20日
by OGC at 2022/11/20(日) 19:06:13 No.20221120190319  削除コメント
640 x 480 x 80,320バイト
No.1

11月20日
本日の参加者
  会員      12名
  その他     09名


@本日の様子






METAR
RJBK 200000Z VRB01KT 15KM FEW020CU 12/09 Q1020 A3014
RJOB 200000Z 08005KT 9999 FEW025 13/08 Q1020
RJOT 200000Z 11003KT 050V150 9999 FEW025 14/09 Q1020
RJOA 200000Z 08006KT CAVOK 13/09 Q1020
TAF
RJOB 192305Z 2000/2106 06005KT 9999 FEW015
RJOT 192306Z 2000/2106 04005KT 9999 FEW020 SCT060
     BECMG 2009/2011 22005KT
RJOA 192306Z 2000/2106 07005KT 9999 FEW030
     BECMG 2012/2015 32005KT


本日の天候は晴れのち曇りで、日没は16時58分でめっきり日が短くなりました。
あと、本日は見学者が9名で記録更新?、体験搭乗者は3名でした。コロナの影響か
朝ドラ「舞い上げれ」効果か?人気沸騰中ですね。


解散    17:00

1番機  11:00離陸 撤収機  16:10着陸 

SF25C JA2330 ファルケ     09Flt.3h05min  
17E   JA2342 タイフーン    00Flt.0h00min
合計                    09Flt.3h05min

    << 戻る || ホームページ || 最新の掲示板へ